createdAt,value
2017-05-18T00:00:16.290Z,54.49
2017-05-18T00:00:56.832Z,54.29
2017-05-18T00:01:37.355Z,54.49
2017-05-18T00:02:17.888Z,54.49
2017-05-18T00:02:58.416Z,55.07
2017-05-18T00:03:38.940Z,55.07
2017-05-18T00:04:19.475Z,54.87
2017-05-18T00:05:00.004Z,54.77
2017-05-18T00:05:40.544Z,54.97
2017-05-18T00:06:21.068Z,55.07
2017-05-18T00:07:01.591Z,55.07
2017-05-18T00:07:42.163Z,55.45
2017-05-18T00:08:22.678Z,55.45
2017-05-18T00:09:03.221Z,55.07
2017-05-18T00:09:43.707Z,54.97
2017-05-18T00:10:24.281Z,54.87
2017-05-18T00:11:04.748Z,54.87
2017-05-18T00:11:45.275Z,55.07
2017-05-18T00:12:25.805Z,55.07
2017-05-18T00:13:06.328Z,55.74
2017-05-18T00:13:46.864Z,55.65
2017-05-18T00:14:27.391Z,55.35
2017-05-18T00:15:07.918Z,55.35
2017-05-18T00:15:48.430Z,55.26
2017-05-18T00:16:28.953Z,55.16
2017-05-18T00:17:09.485Z,55.83
2017-05-18T00:17:50.014Z,55.74
2017-05-18T00:18:30.551Z,55.74
2017-05-18T00:19:11.067Z,54.87
2017-05-18T00:19:51.598Z,54.87
2017-05-18T00:20:32.115Z,54.77
2017-05-18T00:21:12.640Z,54.68
2017-05-18T00:21:53.186Z,54.87
2017-05-18T00:22:33.717Z,54.58
2017-05-18T00:23:14.243Z,55.07
2017-05-18T00:23:54.782Z,55.07
2017-05-18T00:24:35.304Z,54.77
2017-05-18T00:25:15.826Z,55.16
2017-05-18T00:25:56.346Z,55.83
2017-05-18T00:26:36.875Z,55.45
2017-05-18T00:27:17.397Z,54.87
2017-05-18T00:27:57.922Z,55.35
2017-05-18T00:28:38.439Z,54.87
2017-05-18T00:29:18.958Z,55.16
2017-05-18T00:29:59.488Z,54.87
2017-05-18T00:30:40.006Z,54.87
2017-05-18T00:31:20.522Z,54.19
2017-05-18T00:32:01.051Z,53.23
2017-05-18T00:32:41.581Z,53.42
2017-05-18T00:33:22.109Z,53.42
2017-05-18T00:34:02.639Z,52.75
2017-05-18T00:34:43.165Z,52.75
2017-05-18T00:35:23.684Z,52.84
2017-05-18T00:36:04.206Z,52.94
2017-05-18T00:36:44.731Z,52.94
2017-05-18T00:37:25.259Z,53.03
2017-05-18T00:38:05.789Z,53.13
2017-05-18T00:38:46.308Z,53.23
2017-05-18T00:39:26.834Z,53.61
2017-05-18T00:40:07.356Z,53.33
2017-05-18T00:40:47.873Z,53.33
2017-05-18T00:41:28.400Z,53.52
2017-05-18T00:42:08.928Z,53.52
2017-05-18T00:42:49.457Z,53.42
2017-05-18T00:43:29.997Z,53.52
2017-05-18T00:44:10.522Z,53.52
2017-05-18T00:44:51.043Z,53.71
2017-05-18T00:45:31.560Z,54.1
2017-05-18T00:46:12.100Z,54
2017-05-18T00:46:52.641Z,54
2017-05-18T00:47:33.158Z,54.1
2017-05-18T00:48:13.674Z,53.91
2017-05-18T00:48:54.203Z,54
2017-05-18T00:49:34.722Z,53.91
2017-05-18T00:50:15.239Z,53.81
2017-05-18T00:50:55.758Z,54.1
2017-05-18T00:51:36.286Z,54.39
2017-05-18T00:52:16.806Z,54.77
2017-05-18T00:52:57.323Z,54.68
2017-05-18T00:53:37.846Z,54.49
2017-05-18T00:54:18.377Z,54.77
2017-05-18T00:54:58.910Z,54.68
2017-05-18T00:55:39.439Z,54.87
2017-05-18T00:56:19.948Z,54.49
2017-05-18T00:57:00.474Z,54.77
2017-05-18T00:57:41.008Z,55.16
2017-05-18T00:58:21.539Z,55.26
2017-05-18T00:59:02.055Z,55.74
2017-05-18T00:59:42.576Z,55.74
2017-05-18T01:00:23.100Z,56.13
2017-05-18T01:01:03.621Z,55.93
2017-05-18T01:01:44.154Z,55.93
2017-05-18T01:02:24.674Z,55.74
2017-05-18T01:03:05.194Z,55.83
2017-05-18T01:03:45.714Z,55.65
2017-05-18T01:04:26.250Z,56.22
2017-05-18T01:05:06.769Z,55.65
2017-05-18T01:05:47.293Z,56.22
2017-05-18T01:06:27.810Z,56.13
2017-05-18T01:07:08.327Z,55.93
2017-05-18T01:07:48.849Z,55.74
2017-05-18T01:08:29.373Z,56.61
2017-05-18T01:09:09.903Z,56.51
2017-05-18T01:09:50.432Z,55.65
2017-05-18T01:10:30.954Z,55.74
2017-05-18T01:11:11.483Z,56.13
2017-05-18T01:11:52.004Z,55.65
2017-05-18T01:12:32.533Z,55.74
2017-05-18T01:13:13.057Z,55.65
2017-05-18T01:13:53.585Z,55.45
2017-05-18T01:14:34.106Z,54.97
2017-05-18T01:15:14.630Z,54.68
2017-05-18T01:15:55.161Z,54.39
2017-05-18T01:16:35.685Z,53.03
2017-05-18T01:17:16.222Z,53.42
2017-05-18T01:17:56.739Z,53.49
2017-05-18T01:18:37.264Z,53.39
2017-05-18T01:19:17.789Z,53.42
2017-05-18T01:19:58.309Z,53.3
2017-05-18T01:20:38.841Z,53.23
2017-05-18T01:21:19.364Z,53.33
2017-05-18T01:21:59.885Z,53.49
2017-05-18T01:22:40.413Z,53.49
2017-05-18T01:23:20.938Z,53.3
2017-05-18T01:24:01.464Z,53.78
2017-05-18T01:24:41.997Z,53.69
2017-05-18T01:25:22.510Z,53.88
2017-05-18T01:26:03.040Z,54.17
2017-05-18T01:26:43.543Z,54.36
2017-05-18T01:27:24.074Z,54.24
2017-05-18T01:28:04.610Z,54.82
2017-05-18T01:28:45.136Z,54.46
2017-05-18T01:29:25.719Z,55.01
2017-05-18T01:30:06.191Z,54.82
2017-05-18T01:30:46.720Z,55.68
2017-05-18T01:31:27.249Z,55.49
2017-05-18T01:32:07.767Z,55.49
2017-05-18T01:32:48.288Z,55.59
2017-05-18T01:33:28.814Z,55.88
2017-05-18T01:34:09.348Z,55.49
2017-05-18T01:34:49.867Z,55.68
2017-05-18T01:35:30.377Z,55.88
2017-05-18T01:36:10.911Z,56.07
2017-05-18T01:36:51.441Z,55.98
2017-05-18T01:37:31.957Z,55.68
2017-05-18T01:38:12.481Z,55.59
2017-05-18T01:38:53.008Z,55.78
2017-05-18T01:39:33.528Z,55.98
2017-05-18T01:40:14.046Z,55.59
2017-05-18T01:40:54.584Z,55.78
2017-05-18T01:41:35.129Z,55.59
2017-05-18T01:42:15.644Z,55.78
2017-05-18T01:42:56.167Z,56.65
2017-05-18T01:43:36.692Z,56.46
2017-05-18T01:44:17.223Z,56.56
2017-05-18T01:44:57.743Z,56.07
2017-05-18T01:45:38.260Z,56.36
2017-05-18T01:46:18.793Z,55.59
2017-05-18T01:46:59.348Z,55.78
2017-05-18T01:47:39.872Z,56.36
2017-05-18T01:48:20.384Z,56.65
2017-05-18T01:49:00.906Z,56.16
2017-05-18T01:50:54.079Z,56.68
2017-05-18T01:51:34.601Z,56.36
2017-05-18T01:52:15.122Z,56.07
2017-05-18T01:52:55.644Z,56.07
2017-05-18T01:53:36.170Z,56.36
2017-05-18T01:54:16.692Z,56.36
2017-05-18T01:54:57.208Z,56.65
2017-05-18T01:55:37.727Z,56.56
2017-05-18T01:56:18.258Z,56.84
2017-05-18T01:56:58.788Z,56.74
2017-05-18T01:57:39.303Z,56.48
2017-05-18T01:58:19.818Z,56.56
2017-05-18T01:59:00.349Z,56.46
2017-05-18T01:59:40.867Z,57.06
2017-05-18T02:00:21.391Z,56.77
2017-05-18T02:01:01.901Z,56.87
2017-05-18T02:01:42.424Z,57.04
2017-05-18T02:02:22.938Z,56.84
2017-05-18T02:03:03.460Z,56.74
2017-05-18T02:03:43.977Z,56.87
2017-05-18T02:04:24.492Z,56.16
2017-05-18T02:05:05.013Z,56.56
2017-05-18T02:05:45.538Z,56.56
2017-05-18T02:06:26.049Z,56.74
2017-05-18T02:07:06.565Z,56.84
2017-05-18T02:07:47.083Z,56.84
2017-05-18T02:08:27.598Z,56.26
2017-05-18T02:09:08.128Z,56.56
2017-05-18T02:09:48.647Z,56.74
2017-05-18T02:10:29.165Z,56.65
2017-05-18T02:11:09.691Z,57.14
2017-05-18T02:11:50.207Z,57.14
2017-05-18T02:12:30.722Z,56.74
2017-05-18T02:13:11.254Z,56.56
2017-05-18T02:13:51.782Z,56.84
2017-05-18T02:14:32.374Z,57.23
2017-05-18T02:15:12.889Z,57.32
2017-05-18T02:15:53.415Z,57.62
2017-05-18T02:16:33.948Z,56.94
2017-05-18T02:17:14.462Z,57.23
2017-05-18T02:17:54.990Z,57.52
2017-05-18T02:18:35.511Z,57.62
2017-05-18T02:19:16.018Z,57.71
2017-05-18T02:19:56.528Z,57.52
2017-05-18T02:20:37.060Z,57.42
2017-05-18T02:21:17.583Z,57.32
2017-05-18T02:21:58.157Z,58.1
2017-05-18T02:22:38.626Z,57.81
2017-05-18T02:23:19.150Z,57.52
2017-05-18T02:23:59.662Z,58
2017-05-18T02:24:40.181Z,57.81
2017-05-18T02:25:20.711Z,57.62
2017-05-18T02:26:01.232Z,57.62
2017-05-18T02:26:41.740Z,58.29
2017-05-18T02:27:22.269Z,58.19
2017-05-18T02:28:02.802Z,58.19
2017-05-18T02:28:43.322Z,57.87
2017-05-18T02:29:23.854Z,58
2017-05-18T02:30:04.374Z,58.1
2017-05-18T02:30:44.907Z,58.29
2017-05-18T02:31:25.439Z,58
2017-05-18T02:32:05.948Z,58.19
2017-05-18T02:32:46.474Z,58.29
2017-05-18T02:33:26.995Z,58.1
2017-05-18T02:34:07.532Z,58.29
2017-05-18T02:34:48.055Z,58.29
2017-05-18T02:35:28.577Z,58.19
2017-05-18T02:36:09.094Z,58.48
2017-05-18T02:36:49.608Z,58.29
2017-05-18T02:37:30.132Z,58.1
2017-05-18T02:38:10.649Z,58.19
2017-05-18T02:38:51.173Z,58.19
2017-05-18T02:39:31.702Z,58.39
2017-05-18T02:40:12.241Z,58.48
2017-05-18T02:40:52.754Z,58.39
2017-05-18T02:41:33.282Z,59.16
2017-05-18T02:42:13.798Z,59.25
2017-05-18T02:42:54.313Z,58.58
2017-05-18T02:43:34.834Z,58.29
2017-05-18T02:44:15.354Z,59.25
2017-05-18T02:44:55.880Z,59.25
2017-05-18T02:45:36.398Z,58.1
2017-05-18T02:46:16.914Z,58.29
2017-05-18T02:46:57.429Z,59.06
2017-05-18T02:47:37.953Z,58.65
2017-05-18T02:48:18.477Z,59.03
2017-05-18T02:48:59.002Z,59.52
2017-05-18T02:49:39.519Z,59.13
2017-05-18T02:50:20.041Z,59.42
2017-05-18T02:51:00.566Z,59.93
2017-05-18T02:51:41.091Z,59.45
2017-05-18T02:52:21.605Z,59.25
2017-05-18T02:53:02.121Z,59.13
2017-05-18T02:53:42.643Z,59.23
2017-05-18T02:54:23.170Z,59.32
2017-05-18T02:55:03.692Z,59.61
2017-05-18T02:55:44.216Z,59.9
2017-05-18T02:56:24.731Z,59.8
2017-05-18T02:57:05.251Z,60.19
2017-05-18T02:57:45.777Z,60.28
2017-05-18T02:58:26.308Z,60.28
2017-05-18T02:59:06.828Z,59.42
2017-05-18T02:59:47.342Z,59.42
2017-05-18T03:00:27.868Z,60.68
2017-05-18T03:01:08.384Z,60.48
2017-05-18T03:01:48.925Z,59.61
2017-05-18T03:02:29.442Z,60.28
2017-05-18T03:03:09.964Z,60.19
2017-05-18T03:03:50.506Z,60.28
2017-05-18T03:04:31.026Z,60.48
2017-05-18T03:05:11.543Z,60.96
2017-05-18T03:05:52.072Z,61.25
2017-05-18T03:06:32.605Z,60.68
2017-05-18T03:07:13.126Z,60.58
2017-05-18T03:07:53.650Z,60.38
2017-05-18T03:08:34.178Z,60.48
2017-05-18T03:09:14.694Z,60.48
2017-05-18T03:09:55.218Z,60.96
2017-05-18T03:10:35.739Z,61.25
2017-05-18T03:11:16.269Z,61.54
2017-05-18T03:11:56.788Z,61.41
2017-05-18T03:12:37.322Z,61.83
2017-05-18T03:13:17.854Z,61.83
2017-05-18T03:13:58.365Z,61.8
2017-05-18T03:14:38.915Z,61.71
2017-05-18T03:15:19.446Z,61.99
2017-05-18T03:15:59.977Z,61.64
2017-05-18T03:16:40.509Z,61.9
2017-05-18T03:17:21.026Z,62.48
2017-05-18T03:18:01.550Z,62.12
2017-05-18T03:18:42.066Z,62.38
2017-05-18T03:19:22.606Z,62.12
2017-05-18T03:20:03.133Z,61.83
2017-05-18T03:20:43.657Z,61.99
2017-05-18T03:21:24.177Z,62.38
2017-05-18T03:22:04.700Z,61.8
2017-05-18T03:22:45.219Z,61.99
2017-05-18T03:23:25.742Z,62.86
2017-05-18T03:24:06.260Z,63.34
2017-05-18T03:24:46.785Z,62.86
2017-05-18T03:25:27.304Z,62.96
2017-05-18T03:26:07.826Z,62.66
2017-05-18T03:26:48.344Z,62.86
2017-05-18T03:27:28.862Z,62.66
2017-05-18T03:28:09.386Z,62.96
2017-05-18T03:28:49.909Z,62.76
2017-05-18T03:29:30.430Z,63.15
2017-05-18T03:30:10.960Z,62.09
2017-05-18T03:30:51.479Z,62.66
2017-05-18T03:31:31.999Z,62.86
2017-05-18T03:32:12.519Z,62.76
2017-05-18T03:32:53.042Z,62.79
2017-05-18T03:33:33.563Z,62.66
2017-05-18T03:34:14.084Z,62.76
2017-05-18T03:34:54.607Z,62.38
2017-05-18T03:35:35.121Z,62.12
2017-05-18T03:36:15.645Z,61.93
2017-05-18T03:36:56.161Z,62.6
2017-05-18T03:37:36.678Z,62.18
2017-05-18T03:38:17.195Z,62.02
2017-05-18T03:38:57.720Z,62.02
2017-05-18T03:39:38.245Z,62.22
2017-05-18T03:40:18.759Z,61.99
2017-05-18T03:40:59.278Z,62.09
2017-05-18T03:41:39.795Z,61.8
2017-05-18T03:42:20.300Z,62.41
2017-05-18T03:43:00.821Z,61.9
2017-05-18T03:43:41.366Z,61.74
2017-05-18T03:44:21.883Z,61.64
2017-05-18T03:45:02.405Z,61.83
2017-05-18T03:45:42.926Z,61.93
2017-05-18T03:46:23.434Z,61.93
2017-05-18T03:47:03.950Z,61.74
2017-05-18T03:47:44.471Z,61.16
2017-05-18T03:48:24.985Z,61.06
2017-05-18T03:49:05.512Z,61.25
2017-05-18T03:49:46.042Z,60.58
2017-05-18T03:50:26.571Z,60
2017-05-18T03:51:07.103Z,60.48
2017-05-18T03:51:47.620Z,60.58
2017-05-18T03:52:28.138Z,61.35
2017-05-18T03:53:08.648Z,60.86
2017-05-18T03:53:49.245Z,60.58
2017-05-18T03:54:29.710Z,61.06
2017-05-18T03:55:10.229Z,60.28
2017-05-18T03:55:50.749Z,60.58
2017-05-18T03:56:31.262Z,60.48
2017-05-18T03:57:11.786Z,60.19
2017-05-18T03:57:52.312Z,60.58
2017-05-18T03:58:32.829Z,60.19
2017-05-18T03:59:13.350Z,60.28
2017-05-18T03:59:53.865Z,60.1
2017-05-18T04:00:34.388Z,60.28
2017-05-18T04:01:14.901Z,59.8
2017-05-18T04:01:55.423Z,59.61
2017-05-18T04:02:35.946Z,59.61
2017-05-18T04:03:16.462Z,59.42
2017-05-18T04:03:56.994Z,59.71
2017-05-18T04:04:37.514Z,59.32
2017-05-18T04:05:18.046Z,59.03
2017-05-18T04:05:58.560Z,59.13
2017-05-18T04:06:39.082Z,59.32
2017-05-18T04:07:19.599Z,59.32
2017-05-18T04:08:00.115Z,59.61
2017-05-18T04:08:40.633Z,59.61
2017-05-18T04:09:21.147Z,59.61
2017-05-18T04:10:01.670Z,59.52
2017-05-18T04:10:42.185Z,59.42
2017-05-18T04:11:22.872Z,59.42
2017-05-18T04:12:03.603Z,59.61
2017-05-18T04:12:44.134Z,59.52
2017-05-18T04:13:24.673Z,59.23
2017-05-18T04:14:05.207Z,58.65
2017-05-18T04:14:45.724Z,59.32
2017-05-18T04:15:26.239Z,58.26
2017-05-18T04:16:06.760Z,58.17
2017-05-18T04:16:47.390Z,57.97
2017-05-18T04:17:27.919Z,58.55
2017-05-18T04:18:08.434Z,58.17
2017-05-18T04:18:48.968Z,58.94
2017-05-18T04:19:29.489Z,59.23
2017-05-18T04:20:10.021Z,59.32
2017-05-18T04:20:50.541Z,59.52
2017-05-18T04:21:31.065Z,59.52
2017-05-18T04:22:11.585Z,59.8
2017-05-18T04:22:52.112Z,60.19
2017-05-18T04:23:32.645Z,60
2017-05-18T04:24:13.171Z,60.58
2017-05-18T04:24:53.698Z,60.38
2017-05-18T04:25:34.216Z,61.16
2017-05-18T04:26:14.743Z,60.77
2017-05-18T04:26:55.260Z,61.25
2017-05-18T04:27:35.772Z,61.25
2017-05-18T04:28:16.303Z,61.06
2017-05-18T04:28:56.824Z,61.25
2017-05-18T04:29:37.359Z,61.35
2017-05-18T04:30:17.879Z,61.16
2017-05-18T04:30:58.397Z,61.35
2017-05-18T04:31:38.928Z,61.06
2017-05-18T04:32:19.453Z,61.06
2017-05-18T04:32:59.986Z,61.25
2017-05-18T04:33:40.501Z,61.83
2017-05-18T04:34:21.034Z,61.54
2017-05-18T04:35:01.556Z,61.35
2017-05-18T04:35:42.077Z,61.06
2017-05-18T04:36:22.599Z,61.16
2017-05-18T04:37:03.117Z,61.44
2017-05-18T04:37:43.637Z,61.06
2017-05-18T04:38:24.164Z,61.25
2017-05-18T04:39:04.691Z,61.93
2017-05-18T04:39:45.214Z,61.74
2017-05-18T04:40:25.988Z,61.64
2017-05-18T04:41:06.784Z,61.83
2017-05-18T04:41:47.351Z,61.54
2017-05-18T04:42:27.887Z,61.74
2017-05-18T04:43:08.419Z,62.02
2017-05-18T04:43:48.936Z,62.41
2017-05-18T04:44:29.483Z,62.22
2017-05-18T04:45:10.005Z,61.64
2017-05-18T04:45:50.538Z,61.83
2017-05-18T04:46:31.074Z,61.83
2017-05-18T04:47:11.602Z,61.74
2017-05-18T04:47:52.128Z,61.74
2017-05-18T04:48:33.057Z,61.77
2017-05-18T04:49:13.423Z,61.83
2017-05-18T04:49:53.957Z,62.02
2017-05-18T04:50:34.471Z,62.12
2017-05-18T04:51:14.982Z,62.12
2017-05-18T04:51:55.505Z,62.31
2017-05-18T04:52:36.031Z,62.79
2017-05-18T04:53:16.557Z,62.7
2017-05-18T04:53:57.079Z,62.41
2017-05-18T04:54:37.592Z,63.09
2017-05-18T04:55:18.172Z,63.09
2017-05-18T04:55:58.659Z,63.09
2017-05-18T04:56:39.181Z,62.7
2017-05-18T04:57:19.712Z,62.79
2017-05-18T04:58:00.235Z,63.44
2017-05-18T04:58:40.768Z,62.86
2017-05-18T04:59:21.295Z,63.44
2017-05-18T05:00:01.816Z,63.44
2017-05-18T05:00:42.339Z,63.63
2017-05-18T05:01:22.869Z,64.02
2017-05-18T05:02:03.391Z,63.92
2017-05-18T05:02:43.911Z,63.44
2017-05-18T05:03:24.435Z,63.63
2017-05-18T05:04:04.962Z,63.28
2017-05-18T05:04:45.493Z,62.89
2017-05-18T05:05:26.019Z,62.89
2017-05-18T05:06:06.570Z,62.79
2017-05-18T05:06:47.110Z,62.89
2017-05-18T05:07:27.621Z,63.18
2017-05-18T05:08:08.146Z,62.79
2017-05-18T05:08:48.676Z,62.89
2017-05-18T05:09:29.660Z,62.79
2017-05-18T05:10:10.187Z,63.18
2017-05-18T05:10:50.727Z,62.6
2017-05-18T05:11:31.248Z,62.6
2017-05-18T05:12:11.769Z,63.18
2017-05-18T05:12:52.306Z,63.37
2017-05-18T05:13:33.101Z,63.37
2017-05-18T05:14:13.626Z,62.89
2017-05-18T05:14:54.156Z,62.99
2017-05-18T05:15:34.687Z,62.7
2017-05-18T05:16:15.203Z,62.89
2017-05-18T05:16:55.729Z,65.4
2017-05-18T05:17:36.248Z,63.67
2017-05-18T05:18:16.766Z,66.94
2017-05-18T05:18:57.313Z,69.74
2017-05-18T05:19:37.796Z,66.85
2017-05-18T05:20:18.350Z,64.43
2017-05-18T05:20:58.860Z,65.3
2017-05-18T05:21:39.381Z,64.43
2017-05-18T05:22:19.922Z,65.78
2017-05-18T05:23:00.439Z,70.03
2017-05-18T05:23:40.960Z,73.5
2017-05-18T05:24:21.484Z,74.37
2017-05-18T05:25:02.029Z,76.78
2017-05-18T05:25:42.545Z,77.26
2017-05-18T05:26:23.066Z,76.43
2017-05-18T05:27:03.600Z,76.63
2017-05-18T05:27:44.113Z,75.57
2017-05-18T05:28:24.633Z,75.57
2017-05-18T05:29:05.173Z,74.69
2017-05-18T05:29:45.701Z,74.79
2017-05-18T05:30:26.261Z,74.99
2017-05-18T05:31:06.813Z,74.12
2017-05-18T05:31:47.345Z,75.27
2017-05-18T05:32:27.864Z,76.43
2017-05-18T05:33:08.394Z,75.85
2017-05-18T05:33:48.926Z,74.99
2017-05-18T05:34:29.458Z,76.24
2017-05-18T05:35:09.976Z,76.43
2017-05-18T05:35:50.504Z,76.15
2017-05-18T05:36:31.057Z,72
2017-05-18T05:37:11.578Z,72
2017-05-18T05:37:52.100Z,71.32
2017-05-18T05:38:32.619Z,76.92
2017-05-18T05:39:13.157Z,70.94
2017-05-18T05:39:53.672Z,69.97
2017-05-18T05:40:34.187Z,73.06
2017-05-18T05:41:14.735Z,70
2017-05-18T05:41:55.256Z,69.97
2017-05-18T05:42:35.793Z,69.9
2017-05-18T05:43:17.113Z,68.43
2017-05-18T05:43:57.713Z,68.33
2017-05-18T05:44:38.221Z,69.68
2017-05-18T05:45:18.771Z,69.58
2017-05-18T05:45:59.300Z,65.91
2017-05-18T05:46:39.825Z,66.3
2017-05-18T05:47:20.362Z,64.66
2017-05-18T05:48:00.886Z,67.27
2017-05-18T05:48:41.417Z,69.64
2017-05-18T05:49:21.925Z,68.1
2017-05-18T05:50:02.442Z,67.81
2017-05-18T05:50:42.964Z,67.91
2017-05-18T05:51:23.489Z,65.3
2017-05-18T05:52:04.010Z,66.85
2017-05-18T05:52:44.543Z,68.39
2017-05-18T05:53:25.069Z,67.62
2017-05-18T05:54:05.600Z,65.98
2017-05-18T05:54:46.114Z,72.34
2017-05-18T05:55:26.631Z,71.28
2017-05-18T05:56:07.152Z,67.33
2017-05-18T05:56:47.677Z,64.63
2017-05-18T05:57:28.170Z,67.33
2017-05-18T05:58:08.681Z,71.38
2017-05-18T05:58:49.197Z,69.16
2017-05-18T05:59:29.727Z,68.68
2017-05-18T06:00:10.236Z,67.04
2017-05-18T06:00:50.745Z,69.64
2017-05-18T06:01:31.278Z,68.19
2017-05-18T06:02:11.808Z,72.83
2017-05-18T06:02:52.335Z,69.84
2017-05-18T06:03:32.862Z,72.86
2017-05-18T06:04:13.390Z,68.68
2017-05-18T06:06:15.654Z,66.46
2017-05-18T06:06:56.173Z,65.4
2017-05-18T06:07:36.688Z,66.49
2017-05-18T06:08:17.194Z,65.72
2017-05-18T06:08:57.711Z,68.23
2017-05-18T06:09:38.249Z,66.59
2017-05-18T06:10:18.799Z,68.1
2017-05-18T06:10:59.304Z,66.97
2017-05-18T06:11:39.864Z,68.33
2017-05-18T06:12:20.386Z,69.87
2017-05-18T06:13:00.900Z,65.63
2017-05-18T06:13:41.432Z,68.62
2017-05-18T06:14:21.974Z,73.44
2017-05-18T06:15:02.487Z,73.93
2017-05-18T06:15:43.029Z,66.49
2017-05-18T06:16:23.548Z,71.8
2017-05-18T06:17:04.069Z,73.73
2017-05-18T06:17:44.589Z,65.43
2017-05-18T06:18:25.107Z,63.5
2017-05-18T06:19:05.621Z,64.66
2017-05-18T06:19:46.153Z,63.7
2017-05-18T06:20:26.659Z,68.36
2017-05-18T06:21:07.184Z,73.58
2017-05-18T06:21:47.758Z,69.71
2017-05-18T06:22:28.281Z,64.31
2017-05-18T06:23:08.789Z,63.53
2017-05-18T06:23:49.307Z,67.01
2017-05-18T06:24:29.843Z,68.26
2017-05-18T06:25:11.329Z,69.81
2017-05-18T06:25:51.845Z,73.9
2017-05-18T06:28:05.120Z,75.54
2017-05-18T06:28:45.647Z,77.09
2017-05-18T06:29:26.170Z,79.6
2017-05-18T06:30:06.685Z,79.89
2017-05-18T06:30:47.210Z,80.22
2017-05-18T06:31:27.732Z,76.35
2017-05-18T06:32:08.245Z,73.74
2017-05-18T06:32:48.759Z,69.88
2017-05-18T06:33:29.279Z,70.56
2017-05-18T06:34:09.939Z,74.13
2017-05-18T06:34:50.311Z,77.8
2017-05-18T06:35:30.833Z,79.83
2017-05-18T06:36:11.359Z,79.45
2017-05-18T06:36:51.897Z,69.1
2017-05-18T06:37:32.374Z,74.71
2017-05-18T06:38:12.997Z,69.59
2017-05-18T06:38:53.482Z,71.42
2017-05-18T06:39:33.979Z,68.72
2017-05-18T06:40:14.522Z,65.24
2017-05-18T06:40:55.022Z,63.5
2017-05-18T06:41:35.496Z,71.33
2017-05-18T06:42:15.969Z,72.49
2017-05-18T06:42:56.525Z,72.91
2017-05-18T06:43:37.002Z,74.46
2017-05-18T06:44:17.526Z,68.17
2017-05-18T06:44:58.045Z,70.59
2017-05-18T06:45:38.563Z,71.26
2017-05-18T06:47:56.988Z,73.59
2017-05-18T06:48:37.497Z,73.78
2017-05-18T06:49:18.011Z,70.68
2017-05-18T06:49:58.515Z,63.69
2017-05-18T06:50:39.081Z,64.27
2017-05-18T06:51:19.537Z,66.98
2017-05-18T06:52:00.062Z,67.11
2017-05-18T06:52:40.690Z,63.6
2017-05-18T06:53:21.258Z,61.86
2017-05-18T06:54:01.785Z,62.92
2017-05-18T06:54:42.312Z,63.31
2017-05-18T06:55:22.832Z,64.5
2017-05-18T06:56:03.352Z,67.11
2017-05-18T06:56:43.873Z,65.75
2017-05-18T06:57:24.419Z,71.08
2017-05-18T06:58:04.943Z,70.88
2017-05-18T06:58:45.463Z,65.95
2017-05-18T06:59:25.981Z,67.79
2017-05-18T07:00:06.516Z,65.75
2017-05-18T07:00:47.031Z,65.85
2017-05-18T07:01:27.549Z,67.98
2017-05-18T07:02:08.092Z,63.53
2017-05-18T07:02:48.602Z,67.21
2017-05-18T07:03:29.132Z,69.62
2017-05-18T07:04:09.650Z,71.46
2017-05-18T07:04:50.226Z,71.08
2017-05-18T07:05:30.813Z,70.3
2017-05-18T07:06:11.267Z,73.63
2017-05-18T07:06:51.797Z,73.63
2017-05-18T07:07:32.313Z,71.59
2017-05-18T07:08:12.840Z,66.17
2017-05-18T07:08:53.357Z,62.3
2017-05-18T07:09:33.863Z,70.04
2017-05-18T07:10:14.503Z,71.01
2017-05-18T07:10:54.889Z,69.75
2017-05-18T07:11:35.420Z,71.44
2017-05-18T07:12:15.865Z,73.95
2017-05-18T07:12:56.331Z,68.91
2017-05-18T07:13:36.849Z,73.95
2017-05-18T07:14:17.335Z,66.5
2017-05-18T07:14:57.889Z,67.56
2017-05-18T07:15:38.362Z,75.11
2017-05-18T07:16:18.898Z,75.98
2017-05-18T07:16:59.316Z,70.86
2017-05-18T07:17:39.849Z,67.56
2017-05-18T07:18:20.392Z,68.82
2017-05-18T07:19:00.857Z,71.72
2017-05-18T07:19:41.291Z,64.66
2017-05-18T07:20:21.812Z,74.15
2017-05-18T07:21:02.304Z,77.57
2017-05-18T07:21:42.809Z,76.99
2017-05-18T07:22:23.303Z,72.34
2017-05-18T07:23:03.822Z,68.05
2017-05-18T07:23:44.308Z,68.43
2017-05-18T07:24:24.760Z,71.82
2017-05-18T07:25:05.240Z,67.37
2017-05-18T07:25:45.809Z,77.09
2017-05-18T07:26:26.379Z,77.63
2017-05-18T07:27:06.735Z,73.11
2017-05-18T07:27:47.285Z,73.11
2017-05-18T07:28:27.833Z,77.67
2017-05-18T07:29:08.252Z,79.32
2017-05-18T07:29:48.794Z,71.56
2017-05-18T07:30:29.267Z,68.76
2017-05-18T07:31:09.793Z,70.01
2017-05-18T07:31:50.307Z,75.83
2017-05-18T07:32:30.747Z,78.92
2017-05-18T07:33:11.255Z,72.4
2017-05-18T07:33:51.763Z,76.51
2017-05-18T07:34:32.288Z,70.21
2017-05-18T07:35:12.794Z,74.43
2017-05-18T07:35:53.329Z,66.88
2017-05-18T07:36:33.812Z,63.11
2017-05-18T07:37:14.333Z,71.44
2017-05-18T07:37:54.826Z,78.15
2017-05-18T07:38:35.358Z,77.86
2017-05-18T07:39:15.880Z,75.54
2017-05-18T07:39:56.412Z,66.11
2017-05-18T07:40:36.932Z,67.08
2017-05-18T07:41:17.449Z,68.43
2017-05-18T07:41:57.981Z,74.05
2017-05-18T07:42:38.534Z,76.08
2017-05-18T07:43:19.053Z,73.47
2017-05-18T07:43:59.568Z,71.53
2017-05-18T07:44:40.088Z,70.72
2017-05-18T07:45:20.605Z,72.08
2017-05-18T07:46:01.162Z,70.43
2017-05-18T07:46:41.688Z,69.17
2017-05-18T07:47:22.206Z,65.79
2017-05-18T07:48:02.729Z,67.33
2017-05-18T07:48:43.247Z,70.92
2017-05-18T07:49:23.770Z,69.85
2017-05-18T07:50:04.285Z,70.14
2017-05-18T07:50:44.812Z,70.82
2017-05-18T07:51:25.314Z,71.88
2017-05-18T07:52:05.838Z,72.08
2017-05-18T07:52:46.365Z,72.17
2017-05-18T07:53:26.886Z,73.91
2017-05-18T07:54:07.427Z,66.85
2017-05-18T07:54:47.936Z,66.66
2017-05-18T07:55:28.440Z,74.3
2017-05-18T07:56:08.955Z,69.08
2017-05-18T07:56:49.500Z,67.14
2017-05-18T07:57:30.016Z,72.36
2017-05-18T07:58:10.539Z,70.24
2017-05-18T07:58:51.066Z,74.63
2017-05-18T07:59:31.589Z,75.27
2017-05-18T08:00:12.129Z,74.21
2017-05-18T08:00:52.663Z,70.95
2017-05-18T08:01:33.213Z,74.63
2017-05-18T08:02:13.763Z,73.47
2017-05-18T08:02:54.280Z,67.46
2017-05-18T08:03:34.820Z,72.79
2017-05-18T08:04:15.336Z,73.85
2017-05-18T08:04:55.847Z,74.24
2017-05-18T08:05:36.380Z,71.92
2017-05-18T08:06:16.882Z,65.2
2017-05-18T08:06:57.455Z,70.53
2017-05-18T08:07:37.986Z,68.88
2017-05-18T08:08:18.516Z,70.18
2017-05-18T08:08:59.019Z,63.95
2017-05-18T08:09:39.547Z,72.46
2017-05-18T08:10:20.067Z,72.95
2017-05-18T08:11:00.584Z,74.3
2017-05-18T08:11:41.099Z,69.37
2017-05-18T08:12:21.634Z,72.85
2017-05-18T08:13:02.135Z,75.56
2017-05-18T08:13:42.668Z,74.49
2017-05-18T08:14:23.168Z,71.69
2017-05-18T08:15:03.685Z,71.78
2017-05-18T08:15:44.260Z,70.53
2017-05-18T08:16:24.745Z,67.24
2017-05-18T08:17:05.252Z,67.05
2017-05-18T08:17:45.758Z,67.43
2017-05-18T08:18:26.275Z,70.34
2017-05-18T08:19:06.808Z,69.85
2017-05-18T08:19:47.324Z,70.62
2017-05-18T08:20:27.852Z,70.68
2017-05-18T08:21:08.363Z,68.37
2017-05-18T08:21:48.878Z,70.2
2017-05-18T08:22:29.406Z,70.4
2017-05-18T08:23:09.927Z,70.1
2017-05-18T08:23:50.445Z,69.92
2017-05-18T08:24:31.009Z,70.5
2017-05-18T08:25:11.494Z,70.1
2017-05-18T08:25:52.022Z,72.14
2017-05-18T08:26:32.539Z,74.36
2017-05-18T08:27:13.062Z,71.75
2017-05-18T08:27:53.597Z,72.24
2017-05-18T08:28:34.116Z,68.95
2017-05-18T08:29:14.651Z,77.55
2017-05-18T08:29:55.162Z,72.72
2017-05-18T08:30:35.681Z,72.14
2017-05-18T08:31:16.202Z,73.39
2017-05-18T08:31:56.704Z,73.78
2017-05-18T08:32:37.222Z,74.85
2017-05-18T08:33:17.746Z,75.17
2017-05-18T08:33:58.267Z,75.17
2017-05-18T08:34:38.871Z,72.46
2017-05-18T08:35:19.267Z,74.79
2017-05-18T08:35:59.791Z,75.85
2017-05-18T08:36:40.322Z,77.59
2017-05-18T08:37:20.841Z,71.3
2017-05-18T08:38:01.358Z,68.66
2017-05-18T08:38:41.901Z,67.79
2017-05-18T08:39:22.435Z,70.01
2017-05-18T08:40:02.964Z,73.53
2017-05-18T08:40:43.491Z,73.53
2017-05-18T08:41:24.016Z,72.85
2017-05-18T08:42:04.539Z,69.95
2017-05-18T08:42:45.067Z,68.59
2017-05-18T08:43:25.594Z,68.69
2017-05-18T08:44:06.113Z,66.17
2017-05-18T08:44:46.658Z,67.91
2017-05-18T08:45:27.143Z,70.53
2017-05-18T08:46:07.663Z,72.85
2017-05-18T08:46:48.197Z,70.24
2017-05-18T08:47:28.707Z,68.11
2017-05-18T08:48:09.222Z,64.62
2017-05-18T08:48:49.759Z,69.85
2017-05-18T08:49:30.270Z,69.27